createdAt,value
2023-05-05T00:00:13.521Z,101909.31
2023-05-05T00:03:01.550Z,101905.67
2023-05-05T00:05:30.795Z,101900.41
2023-05-05T00:07:59.124Z,101898.90
2023-05-05T00:10:27.344Z,101895.17
2023-05-05T00:12:55.372Z,101898.50
2023-05-05T00:15:23.379Z,101902.42
2023-05-05T00:17:51.453Z,101903.05
2023-05-05T00:20:19.633Z,101898.54
2023-05-05T00:22:47.637Z,101895.33
2023-05-05T00:25:15.958Z,101896.75
2023-05-05T00:27:43.980Z,101896.11
2023-05-05T00:30:13.821Z,101896.15
2023-05-05T00:32:41.875Z,101899.52
2023-05-05T00:35:10.166Z,101901.29
2023-05-05T00:37:38.369Z,101907.21
2023-05-05T00:40:07.680Z,101909.95
2023-05-05T00:42:41.528Z,101908.27
2023-05-05T00:45:11.451Z,101903.16
2023-05-05T00:47:41.673Z,101901.42
2023-05-05T00:50:11.069Z,101897.92
2023-05-05T00:52:39.437Z,101895.92
2023-05-05T00:55:08.457Z,101893.12
2023-05-05T00:57:36.676Z,101891.48
2023-05-05T01:00:06.401Z,101895.60
2023-05-05T01:02:34.772Z,101895.34
2023-05-05T01:05:04.256Z,101893.23
2023-05-05T01:08:14.245Z,101893.77
2023-05-05T01:11:14.643Z,101889.86
2023-05-05T01:13:42.929Z,101886.94
2023-05-05T01:16:31.038Z,101888.31
2023-05-05T01:19:20.660Z,101885.05
2023-05-05T01:21:54.593Z,101882.30
2023-05-05T01:24:46.893Z,101888.57
2023-05-05T01:27:34.457Z,101888.62
2023-05-05T01:30:28.294Z,101880.39
2023-05-05T01:33:03.903Z,101878.35
2023-05-05T01:35:38.181Z,101876.58
2023-05-05T01:38:10.014Z,101871.06
2023-05-05T01:40:43.850Z,101864.51
2023-05-05T01:43:15.368Z,101867.48
2023-05-05T01:45:45.978Z,101862.36
2023-05-05T01:48:18.395Z,101866.88
2023-05-05T01:50:48.471Z,101864.48
2023-05-05T01:53:19.212Z,101864.07
2023-05-05T01:55:49.495Z,101861.68
2023-05-05T01:58:18.572Z,101860.61
2023-05-05T02:00:49.177Z,101861.30
2023-05-05T02:03:19.697Z,101863.40
2023-05-05T02:05:49.329Z,101869.86
2023-05-05T02:08:18.859Z,101871.56
2023-05-05T02:10:49.372Z,101870.88
2023-05-05T02:13:19.538Z,101873.40
2023-05-05T02:15:49.555Z,101875.99
2023-05-05T02:18:18.870Z,101872.98
2023-05-05T02:20:47.496Z,101871.95
2023-05-05T02:23:15.710Z,101875.19
2023-05-05T02:25:49.458Z,101880.56
2023-05-05T02:28:21.901Z,101877.00
2023-05-05T02:30:59.988Z,101878.69
2023-05-05T02:33:32.780Z,101882.16
2023-05-05T02:36:19.774Z,101886.85
2023-05-05T02:39:03.857Z,101887.17
2023-05-05T02:41:38.374Z,101884.37
2023-05-05T02:44:13.037Z,101883.57
2023-05-05T02:46:42.873Z,101882.40
2023-05-05T02:49:11.170Z,101884.33
2023-05-05T02:51:39.493Z,101879.62
2023-05-05T02:54:11.025Z,101881.20
2023-05-05T02:56:50.228Z,101885.38
2023-05-05T02:59:31.151Z,101890.04
2023-05-05T03:02:38.051Z,101886.48
2023-05-05T03:05:19.169Z,101887.84
2023-05-05T03:08:02.745Z,101888.74
2023-05-05T03:10:41.804Z,101889.95
2023-05-05T03:13:11.956Z,101891.23
2023-05-05T03:15:52.548Z,101892.33
2023-05-05T03:18:25.432Z,101891.31
2023-05-05T03:21:08.101Z,101890.80
2023-05-05T03:23:37.321Z,101892.93
2023-05-05T03:26:07.899Z,101887.09
2023-05-05T03:28:39.580Z,101886.05
2023-05-05T03:31:14.031Z,101884.13
2023-05-05T03:33:42.447Z,101885.20
2023-05-05T03:36:10.871Z,101884.67
2023-05-05T03:38:39.103Z,101890.56
2023-05-05T03:41:07.112Z,101885.84
2023-05-05T03:43:35.729Z,101888.11
2023-05-05T03:46:04.016Z,101895.35
2023-05-05T03:48:32.168Z,101898.59
2023-05-05T03:51:00.627Z,101892.70
2023-05-05T03:53:29.365Z,101890.40
2023-05-05T03:55:57.438Z,101897.16
2023-05-05T03:58:25.762Z,101892.52
2023-05-05T04:00:53.875Z,101889.48
2023-05-05T04:03:22.168Z,101890.33
2023-05-05T04:05:50.626Z,101885.14
2023-05-05T04:08:18.736Z,101890.55
2023-05-05T04:10:46.860Z,101893.29
2023-05-05T04:13:15.006Z,101897.96
2023-05-05T04:15:47.072Z,101893.39
2023-05-05T04:18:15.636Z,101895.83
2023-05-05T04:20:44.357Z,101896.88
2023-05-05T04:23:12.776Z,101894.25
2023-05-05T04:25:41.397Z,101898.39
2023-05-05T04:28:10.824Z,101898.30
2023-05-05T04:30:39.246Z,101898.73
2023-05-05T04:33:07.673Z,101896.92
2023-05-05T04:35:35.788Z,101891.11
2023-05-05T04:38:03.909Z,101894.42
2023-05-05T04:40:32.427Z,101892.02
2023-05-05T04:43:00.748Z,101893.88
2023-05-05T04:45:29.872Z,101893.38
2023-05-05T04:47:58.288Z,101888.12
2023-05-05T04:50:27.218Z,101882.56
2023-05-05T04:52:56.448Z,101887.02
2023-05-05T04:55:25.468Z,101888.14
2023-05-05T04:57:54.081Z,101890.46
2023-05-05T05:00:21.997Z,101889.06
2023-05-05T05:02:50.104Z,101885.11
2023-05-05T05:05:18.457Z,101883.64
2023-05-05T05:07:46.562Z,101884.52
2023-05-05T05:10:14.986Z,101886.15
2023-05-05T05:12:43.025Z,101881.09
2023-05-05T05:15:13.194Z,101888.70
2023-05-05T05:17:41.768Z,101892.20
2023-05-05T05:20:10.656Z,101893.07
2023-05-05T05:22:39.395Z,101894.69
2023-05-05T05:25:10.224Z,101893.20
2023-05-05T05:27:38.344Z,101891.14
2023-05-05T05:30:07.732Z,101894.85
2023-05-05T05:32:36.321Z,101891.06
2023-05-05T05:35:05.116Z,101892.42
2023-05-05T05:37:35.062Z,101891.37
2023-05-05T05:40:05.596Z,101889.17
2023-05-05T05:42:34.085Z,101888.88
2023-05-05T05:45:02.308Z,101889.44
2023-05-05T05:47:31.110Z,101887.31
2023-05-05T05:49:59.364Z,101882.42
2023-05-05T05:52:27.369Z,101885.20
2023-05-05T05:54:55.887Z,101888.37
2023-05-05T05:57:24.755Z,101890.66
2023-05-05T05:59:54.136Z,101892.48
2023-05-05T06:02:22.983Z,101893.43
2023-05-05T06:04:51.725Z,101892.95
2023-05-05T06:07:20.183Z,101896.33
2023-05-05T06:09:48.536Z,101893.16
2023-05-05T06:12:16.741Z,101900.25
2023-05-05T06:14:44.962Z,101896.90
2023-05-05T06:17:12.988Z,101893.63
2023-05-05T06:19:42.405Z,101892.05
2023-05-05T06:22:11.125Z,101890.02
2023-05-05T06:24:39.245Z,101886.86
2023-05-05T06:27:07.465Z,101887.20
2023-05-05T06:29:35.488Z,101885.43
2023-05-05T06:32:03.506Z,101879.77
2023-05-05T06:34:31.726Z,101872.98
2023-05-05T06:36:59.748Z,101875.98
2023-05-05T06:39:27.768Z,101878.30
2023-05-05T06:41:56.136Z,101875.11
2023-05-05T06:44:24.106Z,101876.63
2023-05-05T06:46:52.170Z,101869.27
2023-05-05T06:49:20.247Z,101876.93
2023-05-05T06:51:48.669Z,101873.24
2023-05-05T06:54:16.915Z,101871.28
2023-05-05T06:56:45.512Z,101870.84
2023-05-05T06:59:13.848Z,101870.62
2023-05-05T07:01:41.857Z,101876.44
2023-05-05T07:04:10.137Z,101877.31
2023-05-05T07:06:38.300Z,101876.50
2023-05-05T07:09:06.812Z,101882.69
2023-05-05T07:11:35.234Z,101879.38
2023-05-05T07:14:03.555Z,101877.27
2023-05-05T07:16:31.599Z,101875.88
2023-05-05T07:19:01.013Z,101874.82
2023-05-05T07:21:29.020Z,101873.33
2023-05-05T07:23:57.146Z,101872.81
2023-05-05T07:26:25.762Z,101874.11
2023-05-05T07:28:55.601Z,101870.75
2023-05-05T07:31:23.641Z,101866.84
2023-05-05T07:33:51.731Z,101870.44
2023-05-05T07:36:20.047Z,101870.65
2023-05-05T07:38:48.377Z,101875.59
2023-05-05T07:41:16.490Z,101876.36
2023-05-05T07:43:44.811Z,101873.21
2023-05-05T07:46:14.053Z,101875.11
2023-05-05T07:48:42.196Z,101881.25
2023-05-05T07:51:11.174Z,101884.23
2023-05-05T07:53:39.492Z,101884.19
2023-05-05T07:56:08.934Z,101884.39
2023-05-05T07:58:37.137Z,101883.52
2023-05-05T08:01:06.670Z,101883.02
2023-05-05T08:03:34.822Z,101887.70
2023-05-05T08:06:09.372Z,101886.78
2023-05-05T08:08:38.149Z,101887.93
2023-05-05T08:11:06.912Z,101888.13
2023-05-05T08:13:35.299Z,101889.97
2023-05-05T08:16:03.726Z,101888.88
2023-05-05T08:18:31.837Z,101892.69
2023-05-05T08:20:59.852Z,101893.39
2023-05-05T08:23:27.876Z,101891.43
2023-05-05T08:25:56.197Z,101891.44
2023-05-05T08:28:24.114Z,101894.26
2023-05-05T08:30:52.231Z,101890.77
2023-05-05T08:33:20.265Z,101892.98
2023-05-05T08:35:49.673Z,101894.38
2023-05-05T08:38:19.205Z,101892.77
2023-05-05T08:40:47.327Z,101890.27
2023-05-05T08:43:16.043Z,101888.06
2023-05-05T08:45:45.022Z,101883.55
2023-05-05T08:48:13.190Z,101883.18
2023-05-05T08:50:44.995Z,101886.39
2023-05-05T08:53:30.233Z,101889.48
2023-05-05T08:56:01.091Z,101890.70
2023-05-05T08:58:31.401Z,101892.48
2023-05-05T09:01:01.631Z,101896.01
2023-05-05T09:03:30.002Z,101892.98
2023-05-05T09:05:58.121Z,101887.71
2023-05-05T09:08:27.145Z,101885.36
2023-05-05T09:10:56.065Z,101881.91
2023-05-05T09:13:24.292Z,101874.82
2023-05-05T09:15:52.312Z,101871.74
2023-05-05T09:18:20.325Z,101873.86
2023-05-05T09:20:48.562Z,101874.51
2023-05-05T09:23:17.972Z,101877.30
2023-05-05T09:26:05.060Z,101873.55
2023-05-05T09:28:33.093Z,101870.55
2023-05-05T09:31:16.276Z,101868.23
2023-05-05T09:33:44.668Z,101865.73
2023-05-05T09:36:12.704Z,101869.04
2023-05-05T09:38:40.842Z,101871.27
2023-05-05T09:41:08.943Z,101874.89
2023-05-05T09:43:52.070Z,101874.20
2023-05-05T09:46:20.247Z,101873.15
2023-05-05T09:48:48.343Z,101874.16
2023-05-05T09:51:16.363Z,101868.64
2023-05-05T09:53:45.188Z,101865.26
2023-05-05T09:56:13.302Z,101868.91
2023-05-05T09:58:42.353Z,101871.06
2023-05-05T10:01:23.845Z,101876.66
2023-05-05T10:03:52.549Z,101873.64
2023-05-05T10:06:20.633Z,101873.41
2023-05-05T10:09:01.754Z,101875.66
2023-05-05T10:11:30.422Z,101877.54
2023-05-05T10:13:58.551Z,101871.17
2023-05-05T10:16:30.296Z,101869.65
2023-05-05T10:19:02.316Z,101870.23
2023-05-05T10:21:40.218Z,101860.54
2023-05-05T10:24:17.012Z,101860.79
2023-05-05T10:26:46.736Z,101860.38
2023-05-05T10:29:30.717Z,101856.74
2023-05-05T10:32:18.922Z,101857.98
2023-05-05T10:35:01.580Z,101852.80
2023-05-05T10:37:30.601Z,101849.90
2023-05-05T10:39:59.338Z,101847.19
2023-05-05T10:42:27.966Z,101842.95
2023-05-05T10:44:56.399Z,101841.52
2023-05-05T10:47:25.324Z,101833.15
2023-05-05T10:50:06.722Z,101830.35
2023-05-05T10:53:05.889Z,101826.16
2023-05-05T10:55:59.403Z,101820.75
2023-05-05T10:58:47.134Z,101811.77
2023-05-05T11:01:34.313Z,101802.36
2023-05-05T11:04:24.978Z,101801.66
2023-05-05T11:07:09.238Z,101798.83
2023-05-05T11:09:55.426Z,101792.92
2023-05-05T11:12:23.758Z,101794.49
2023-05-05T11:15:27.464Z,101788.73
2023-05-05T11:18:00.569Z,101786.35
2023-05-05T11:20:36.033Z,101778.30
2023-05-05T11:23:04.405Z,101775.74
2023-05-05T11:25:42.277Z,101770.04
2023-05-05T11:28:12.626Z,101765.15
2023-05-05T11:30:59.357Z,101763.41
2023-05-05T11:33:37.157Z,101753.95
2023-05-05T11:36:16.040Z,101752.84
2023-05-05T11:39:09.214Z,101748.39
2023-05-05T11:42:10.201Z,101749.02
2023-05-05T11:44:39.440Z,101745.33
2023-05-05T11:47:07.668Z,101744.90
2023-05-05T11:49:36.649Z,101736.95
2023-05-05T11:52:13.164Z,101731.46
2023-05-05T11:54:48.139Z,101724.90
2023-05-05T11:57:21.106Z,101720.43
2023-05-05T12:00:02.798Z,101719.70
2023-05-05T12:02:33.074Z,101718.35
2023-05-05T12:05:02.771Z,101716.77
2023-05-05T12:07:33.622Z,101709.16
2023-05-05T12:10:02.124Z,101709.31
2023-05-05T12:12:36.038Z,101710.54
2023-05-05T12:15:05.359Z,101706.95
2023-05-05T12:17:42.749Z,101703.77
2023-05-05T12:20:12.157Z,101698.24
2023-05-05T12:22:40.950Z,101693.76
2023-05-05T12:25:09.840Z,101692.55
2023-05-05T12:27:38.954Z,101685.14
2023-05-05T12:30:25.126Z,101678.14
2023-05-05T12:33:02.082Z,101680.89
2023-05-05T12:35:31.235Z,101682.58
2023-05-05T12:37:59.376Z,101678.36
2023-05-05T12:40:46.674Z,101674.17
2023-05-05T12:43:44.284Z,101677.50
2023-05-05T12:46:13.383Z,101674.80
2023-05-05T12:48:48.192Z,101670.65
2023-05-05T12:51:19.953Z,101665.30
2023-05-05T12:53:50.588Z,101659.21
2023-05-05T12:56:35.092Z,101655.00
2023-05-05T12:59:36.533Z,101650.56
2023-05-05T13:02:04.912Z,101647.61
2023-05-05T13:04:33.077Z,101643.27
2023-05-05T13:07:15.252Z,101639.56
2023-05-05T13:09:43.258Z,101637.95
2023-05-05T13:12:14.301Z,101641.73
2023-05-05T13:14:43.027Z,101634.98
2023-05-05T13:17:12.133Z,101637.77
2023-05-05T13:19:46.527Z,101636.36
2023-05-05T13:22:14.910Z,101636.66
2023-05-05T13:24:51.890Z,101640.86
2023-05-05T13:27:21.238Z,101637.19
2023-05-05T13:29:49.342Z,101636.21
2023-05-05T13:32:17.313Z,101637.67
2023-05-05T13:34:45.471Z,101632.84
2023-05-05T13:37:13.354Z,101630.98
2023-05-05T13:39:41.405Z,101633.21
2023-05-05T13:42:09.919Z,101626.63
2023-05-05T13:44:37.921Z,101625.71
2023-05-05T13:47:06.075Z,101628.59
2023-05-05T13:49:34.856Z,101624.17
2023-05-05T13:52:03.182Z,101624.86
2023-05-05T13:54:31.098Z,101622.34
2023-05-05T13:56:59.316Z,101623.57
2023-05-05T13:59:27.533Z,101626.09
2023-05-05T14:01:56.157Z,101626.30
2023-05-05T14:04:24.278Z,101625.63
2023-05-05T14:06:53.627Z,101621.38
2023-05-05T14:09:21.723Z,101616.95
2023-05-05T14:11:49.640Z,101620.29
2023-05-05T14:14:18.162Z,101616.19
2023-05-05T14:16:48.483Z,101616.20
2023-05-05T14:19:18.016Z,101615.45
2023-05-05T14:21:46.138Z,101616.92
2023-05-05T14:24:14.159Z,101614.31
2023-05-05T14:26:42.178Z,101614.43
2023-05-05T14:29:10.300Z,101616.80
2023-05-05T14:31:38.326Z,101613.52
2023-05-05T14:34:06.832Z,101614.40
2023-05-05T14:36:34.853Z,101612.31
2023-05-05T14:39:03.074Z,101613.60
2023-05-05T14:41:31.095Z,101609.71
2023-05-05T14:43:59.413Z,101608.17
2023-05-05T14:46:27.604Z,101609.41
2023-05-05T14:48:55.672Z,101607.95
2023-05-05T14:51:23.679Z,101606.22
2023-05-05T14:53:51.894Z,101606.71
2023-05-05T14:56:22.643Z,101603.04
2023-05-05T14:58:52.142Z,101601.96
2023-05-05T15:01:21.083Z,101606.90
2023-05-05T15:03:49.195Z,101604.33
2023-05-05T15:06:17.217Z,101604.10
2023-05-05T15:08:45.233Z,101602.91
2023-05-05T15:11:13.954Z,101598.95
2023-05-05T15:13:41.967Z,101601.30
2023-05-05T15:16:10.429Z,101598.80
2023-05-05T15:18:38.582Z,101598.63
2023-05-05T15:21:06.632Z,101594.83
2023-05-05T15:23:34.949Z,101591.95
2023-05-05T15:26:03.178Z,101589.33
2023-05-05T15:28:31.290Z,101590.55
2023-05-05T15:31:03.723Z,101591.34
2023-05-05T15:33:31.866Z,101590.13
2023-05-05T15:36:00.477Z,101589.69
2023-05-05T15:38:29.789Z,101592.42
2023-05-05T15:40:57.911Z,101590.52
2023-05-05T15:43:25.928Z,101588.89
2023-05-05T15:45:54.050Z,101586.92
2023-05-05T15:48:22.069Z,101587.26
2023-05-05T15:50:50.390Z,101584.96
2023-05-05T15:53:18.406Z,101583.60
2023-05-05T15:55:46.929Z,101589.48
2023-05-05T15:58:14.956Z,101594.75
2023-05-05T16:00:42.969Z,101594.50
2023-05-05T16:03:11.720Z,101596.67
2023-05-05T16:05:39.706Z,101597.86
2023-05-05T16:08:10.145Z,101593.80
2023-05-05T16:10:38.359Z,101597.02
2023-05-05T16:13:06.357Z,101593.38
2023-05-05T16:15:35.707Z,101595.49
2023-05-05T16:18:03.972Z,101597.73
2023-05-05T16:20:32.146Z,101598.16
2023-05-05T16:23:00.164Z,101601.77
2023-05-05T16:25:28.302Z,101605.39
2023-05-05T16:27:57.637Z,101606.83
2023-05-05T16:30:26.236Z,101603.70
2023-05-05T16:32:54.843Z,101603.79
2023-05-05T16:35:23.180Z,101606.02
2023-05-05T16:37:51.390Z,101610.70
2023-05-05T16:40:19.407Z,101612.29
2023-05-05T16:42:47.443Z,101617.30
2023-05-05T16:45:15.591Z,101616.73
2023-05-05T16:47:43.790Z,101619.63
2023-05-05T16:50:11.901Z,101621.30
2023-05-05T16:52:39.913Z,101619.73
2023-05-05T16:55:08.645Z,101624.31
2023-05-05T16:57:36.855Z,101629.65
2023-05-05T17:00:07.645Z,101635.29
2023-05-05T17:02:36.031Z,101637.59
2023-05-05T17:05:04.705Z,101640.88
2023-05-05T17:07:32.865Z,101642.98
2023-05-05T17:10:00.972Z,101642.79
2023-05-05T17:12:28.999Z,101641.64
2023-05-05T17:14:57.006Z,101639.79
2023-05-05T17:17:25.039Z,101641.45
2023-05-05T17:19:53.045Z,101642.67
2023-05-05T17:22:21.066Z,101641.14
2023-05-05T17:24:49.096Z,101640.48
2023-05-05T17:27:17.139Z,101642.24
2023-05-05T17:29:45.122Z,101647.36
2023-05-05T17:32:13.199Z,101645.78
2023-05-05T17:34:41.564Z,101650.55
2023-05-05T17:37:09.891Z,101649.02
2023-05-05T17:39:38.003Z,101653.66
2023-05-05T17:42:06.124Z,101652.78
2023-05-05T17:44:34.140Z,101658.58
2023-05-05T17:47:04.031Z,101658.27
2023-05-05T17:49:32.289Z,101663.64
2023-05-05T17:52:00.722Z,101664.39
2023-05-05T17:54:28.631Z,101662.63
2023-05-05T17:56:56.684Z,101670.21
2023-05-05T17:59:24.781Z,101673.77
2023-05-05T18:01:52.793Z,101673.73
2023-05-05T18:04:20.810Z,101673.41
2023-05-05T18:06:48.832Z,101671.95
2023-05-05T18:09:17.825Z,101672.18
2023-05-05T18:11:46.071Z,101675.52
2023-05-05T18:14:14.097Z,101674.50
2023-05-05T18:16:47.840Z,101678.86
2023-05-05T18:19:18.415Z,101686.27
2023-05-05T18:21:46.897Z,101684.16
2023-05-05T18:24:20.479Z,101685.23
2023-05-05T18:26:50.978Z,101683.64
2023-05-05T18:29:20.282Z,101679.86
2023-05-05T18:31:51.784Z,101678.19
2023-05-05T18:34:20.969Z,101679.66
2023-05-05T18:36:51.535Z,101675.54
2023-05-05T18:39:20.382Z,101682.55
2023-05-05T18:41:48.405Z,101684.20
2023-05-05T18:44:16.418Z,101684.31
2023-05-05T18:46:44.899Z,101684.81
2023-05-05T18:49:13.061Z,101681.83
2023-05-05T18:51:41.585Z,101680.48
2023-05-05T18:54:09.459Z,101682.56
2023-05-05T18:56:37.637Z,101677.70
2023-05-05T18:59:05.752Z,101680.80
2023-05-05T19:01:33.770Z,101680.73
2023-05-05T19:04:01.813Z,101680.57
2023-05-05T19:06:29.998Z,101678.89
2023-05-05T19:08:58.536Z,101678.48
2023-05-05T19:11:26.543Z,101674.76
2023-05-05T19:13:54.678Z,101676.15
2023-05-05T19:16:23.200Z,101672.52
2023-05-05T19:18:51.205Z,101667.85
2023-05-05T19:21:19.425Z,101671.50
2023-05-05T19:23:47.443Z,101671.79
2023-05-05T19:26:16.366Z,101669.46
2023-05-05T19:28:44.387Z,101669.10
2023-05-05T19:31:12.408Z,101664.91
2023-05-05T19:33:45.266Z,101664.98
2023-05-05T19:36:13.365Z,101662.88
2023-05-05T19:38:44.567Z,101667.08
2023-05-05T19:41:12.809Z,101664.15
2023-05-05T19:43:40.843Z,101667.06
2023-05-05T19:46:08.937Z,101664.95
2023-05-05T19:48:37.172Z,101662.87
2023-05-05T19:51:05.194Z,101663.98
2023-05-05T19:53:33.210Z,101663.89
2023-05-05T19:56:01.226Z,101661.47
2023-05-05T19:58:29.246Z,101662.39
2023-05-05T20:00:57.363Z,101663.10
2023-05-05T20:03:25.882Z,101660.96
2023-05-05T20:05:54.010Z,101659.14
2023-05-05T20:08:22.037Z,101652.02
2023-05-05T20:10:50.854Z,101655.55
2023-05-05T20:13:18.916Z,101653.25
2023-05-05T20:15:47.306Z,101651.95
2023-05-05T20:18:15.410Z,101651.10
2023-05-05T20:20:43.428Z,101649.52
2023-05-05T20:23:11.553Z,101650.61
2023-05-05T20:25:39.572Z,101651.64
2023-05-05T20:28:07.604Z,101645.13
2023-05-05T20:30:35.912Z,101644.71
2023-05-05T20:33:04.170Z,101644.05
2023-05-05T20:35:32.362Z,101643.48
2023-05-05T20:38:00.374Z,101642.40
2023-05-05T20:40:28.341Z,101641.80
2023-05-05T20:42:56.430Z,101644.68
2023-05-05T20:45:25.044Z,101643.16
2023-05-05T20:47:53.238Z,101642.35
2023-05-05T20:50:21.574Z,101639.85
2023-05-05T20:52:49.709Z,101644.07
2023-05-05T20:55:17.717Z,101642.59
2023-05-05T20:57:46.285Z,101639.88
2023-05-05T21:00:14.659Z,101639.75
2023-05-05T21:02:43.062Z,101635.81
2023-05-05T21:05:12.005Z,101637.23
2023-05-05T21:07:40.120Z,101636.25
2023-05-05T21:10:09.494Z,101633.91
2023-05-05T21:12:38.118Z,101635.73
2023-05-05T21:15:07.556Z,101632.63
2023-05-05T21:17:36.252Z,101633.20
2023-05-05T21:20:04.932Z,101629.61
2023-05-05T21:22:32.965Z,101629.17
2023-05-05T21:25:15.637Z,101628.95
2023-05-05T21:27:44.746Z,101629.48
2023-05-05T21:30:13.399Z,101625.25
2023-05-05T21:32:42.224Z,101625.72
2023-05-05T21:35:10.910Z,101625.61
2023-05-05T21:37:39.631Z,101623.06
2023-05-05T21:40:13.930Z,101624.55
2023-05-05T21:42:43.399Z,101624.96
2023-05-05T21:45:12.135Z,101623.45
2023-05-05T21:47:40.386Z,101625.20
2023-05-05T21:50:10.411Z,101621.24
2023-05-05T21:52:38.705Z,101619.48
2023-05-05T21:55:07.348Z,101615.59
2023-05-05T21:57:35.365Z,101614.89
2023-05-05T22:00:05.815Z,101613.67
2023-05-05T22:02:40.603Z,101611.33
2023-05-05T22:05:09.529Z,101611.79
2023-05-05T22:07:37.651Z,101608.92
2023-05-05T22:10:06.675Z,101603.21
2023-05-05T22:12:34.816Z,101602.89
2023-05-05T22:15:02.913Z,101601.20
2023-05-05T22:17:30.950Z,101599.42
2023-05-05T22:19:58.953Z,101598.45
2023-05-05T22:22:26.970Z,101593.08
2023-05-05T22:24:54.989Z,101590.08
2023-05-05T22:27:23.312Z,101587.98
2023-05-05T22:29:51.328Z,101586.81
2023-05-05T22:32:20.657Z,101582.23
2023-05-05T22:34:48.772Z,101577.81
2023-05-05T22:37:16.794Z,101576.39
2023-05-05T22:39:44.911Z,101569.14
2023-05-05T22:42:12.948Z,101565.30
2023-05-05T22:44:40.960Z,101567.71
2023-05-05T22:47:09.279Z,101564.29
2023-05-05T22:49:37.569Z,101564.23
2023-05-05T22:52:05.721Z,101556.77
2023-05-05T22:54:33.745Z,101556.17
2023-05-05T22:57:02.376Z,101550.77
2023-05-05T22:59:30.283Z,101545.53
2023-05-05T23:01:58.490Z,101545.14
2023-05-05T23:04:26.545Z,101542.86
2023-05-05T23:06:54.631Z,101541.75
2023-05-05T23:09:22.657Z,101539.61
2023-05-05T23:11:50.674Z,101541.23
2023-05-05T23:14:19.602Z,101531.78
2023-05-05T23:16:47.646Z,101531.23
2023-05-05T23:19:15.843Z,101532.55
2023-05-05T23:21:52.635Z,101532.71
2023-05-05T23:24:22.131Z,101528.63
2023-05-05T23:26:50.233Z,101526.02
2023-05-05T23:29:19.315Z,101524.70
2023-05-05T23:31:47.574Z,101521.86
2023-05-05T23:34:15.605Z,101519.66
2023-05-05T23:36:43.887Z,101518.02
2023-05-05T23:39:12.148Z,101514.91
2023-05-05T23:41:40.358Z,101512.83
2023-05-05T23:44:08.484Z,101512.42
2023-05-05T23:46:36.466Z,101510.20
2023-05-05T23:49:04.513Z,101512.15
2023-05-05T23:51:32.585Z,101509.16
2023-05-05T23:54:01.264Z,101507.23
2023-05-05T23:56:29.179Z,101509.58
2023-05-05T23:58:57.194Z,101509.23
